createdAt,value
2023-03-16T06:03:09.124Z,444.00
2023-03-16T06:04:09.021Z,447.00
2023-03-16T06:05:09.973Z,448.00
2023-03-16T06:06:10.017Z,450.00
2023-03-16T06:07:09.062Z,450.00
2023-03-16T06:08:09.086Z,451.00
2023-03-16T06:09:10.091Z,450.00
2023-03-16T06:10:10.096Z,452.00
2023-03-16T06:11:10.139Z,451.00
2023-03-16T06:12:10.203Z,449.00
2023-03-16T06:13:10.248Z,449.00
2023-03-16T06:14:09.314Z,451.00
2023-03-16T06:15:09.357Z,449.00
2023-03-16T06:16:10.498Z,449.00
2023-03-16T06:17:09.480Z,451.00
2023-03-16T06:18:10.464Z,453.00
2023-03-16T06:19:09.495Z,454.00
2023-03-16T06:20:10.517Z,454.00
2023-03-16T06:21:10.525Z,452.00
2023-03-16T06:22:10.672Z,450.00
2023-03-16T06:23:10.597Z,449.00
2023-03-16T06:24:09.604Z,450.00
2023-03-16T06:25:10.617Z,450.00
2023-03-16T06:26:10.622Z,450.00
2023-03-16T06:27:09.630Z,452.00
2023-03-16T06:28:10.640Z,449.00
2023-03-16T06:29:10.650Z,448.00
2023-03-16T06:30:10.685Z,448.00
2023-03-16T06:31:10.788Z,449.00
2023-03-16T06:32:10.724Z,449.00
2023-03-16T06:33:10.856Z,450.00
2023-03-16T06:34:10.762Z,449.00
2023-03-16T06:35:09.863Z,448.00
2023-03-16T06:36:10.882Z,447.00
2023-03-16T06:37:10.826Z,448.00
2023-03-16T06:38:10.830Z,447.00
2023-03-16T06:39:09.845Z,447.00
2023-03-16T06:40:10.867Z,447.00
2023-03-16T06:41:09.887Z,448.00
2023-03-16T06:42:10.891Z,447.00
2023-03-16T06:43:10.893Z,447.00
2023-03-16T06:44:10.911Z,447.00
2023-03-16T06:45:09.921Z,447.00
2023-03-16T06:46:10.990Z,447.00
2023-03-16T06:47:09.957Z,449.00
2023-03-16T06:48:10.978Z,451.00
2023-03-16T06:49:10.030Z,453.00
2023-03-16T06:50:11.008Z,453.00
2023-03-16T06:51:11.033Z,454.00
2023-03-16T06:52:11.024Z,452.00
2023-03-16T06:53:11.030Z,452.00
2023-03-16T06:54:11.024Z,449.00
2023-03-16T06:55:11.036Z,448.00
2023-03-16T06:56:11.042Z,449.00
2023-03-16T06:57:11.092Z,450.00
2023-03-16T06:58:11.051Z,448.00
2023-03-16T06:59:11.054Z,448.00
2023-03-16T07:00:11.067Z,448.00
2023-03-16T07:01:11.110Z,447.00
2023-03-16T07:02:10.087Z,448.00
2023-03-16T07:03:11.510Z,446.00
2023-03-16T07:04:11.215Z,445.00
2023-03-16T07:05:11.118Z,444.00
2023-03-16T07:06:11.139Z,444.00
2023-03-16T07:07:10.163Z,443.00
2023-03-16T07:08:11.170Z,444.00
2023-03-16T07:09:10.176Z,444.00
2023-03-16T07:10:11.194Z,442.00
2023-03-16T07:11:11.197Z,443.00
2023-03-16T07:12:11.224Z,444.00
2023-03-16T07:13:11.227Z,443.00
2023-03-16T07:14:11.266Z,442.00
2023-03-16T07:15:10.291Z,440.00
2023-03-16T07:16:10.301Z,441.00
2023-03-16T07:17:11.283Z,440.00
2023-03-16T07:18:11.296Z,440.00
2023-03-16T07:19:11.310Z,438.00
2023-03-16T07:20:10.370Z,438.00
2023-03-16T07:21:10.336Z,437.00
2023-03-16T07:22:10.347Z,438.00
2023-03-16T07:23:10.371Z,438.00
2023-03-16T07:24:11.358Z,439.00
2023-03-16T07:25:11.504Z,438.00
2023-03-16T07:26:10.360Z,440.00
2023-03-16T07:27:12.511Z,440.00
2023-03-16T07:28:11.410Z,442.00
2023-03-16T07:29:11.386Z,444.00
2023-03-16T07:30:11.392Z,444.00
2023-03-16T07:31:11.412Z,444.00
2023-03-16T07:32:11.596Z,445.00
2023-03-16T07:33:11.539Z,441.00
2023-03-16T07:34:11.449Z,441.00
2023-03-16T07:35:11.542Z,444.00
2023-03-16T07:36:11.478Z,443.00
2023-03-16T07:37:11.469Z,441.00
2023-03-16T07:38:11.460Z,441.00
2023-03-16T07:39:11.502Z,445.00
2023-03-16T07:40:11.514Z,445.00
2023-03-16T07:41:11.478Z,445.00
2023-03-16T07:42:11.519Z,445.00
2023-03-16T07:43:11.508Z,441.00
2023-03-16T07:44:11.524Z,442.00
2023-03-16T07:45:11.516Z,441.00
2023-03-16T07:46:11.655Z,440.00
2023-03-16T07:47:11.539Z,438.00
2023-03-16T07:48:11.549Z,439.00
2023-03-16T07:49:11.553Z,440.00
2023-03-16T07:50:11.593Z,441.00
2023-03-16T07:51:11.628Z,440.00
2023-03-16T07:52:10.584Z,441.00
2023-03-16T07:53:11.025Z,439.00
2023-03-16T07:54:11.595Z,437.00
2023-03-16T07:55:11.659Z,434.00
2023-03-16T07:56:11.609Z,433.00
2023-03-16T07:57:10.620Z,431.00
2023-03-16T07:58:12.021Z,432.00
2023-03-16T07:59:11.643Z,431.00
2023-03-16T08:00:11.638Z,432.00
2023-03-16T08:01:11.638Z,433.00
2023-03-16T08:02:11.749Z,434.00
2023-03-16T08:03:11.718Z,434.00
2023-03-16T08:04:11.636Z,433.00
2023-03-16T08:05:11.703Z,433.00
2023-03-16T08:06:11.641Z,430.00
2023-03-16T08:07:11.664Z,429.00
2023-03-16T08:08:11.641Z,427.00
2023-03-16T08:09:11.638Z,426.00
2023-03-16T08:10:11.653Z,428.00
2023-03-16T08:11:11.671Z,431.00
2023-03-16T08:12:11.654Z,431.00
2023-03-16T08:13:10.653Z,432.00
2023-03-16T08:14:11.653Z,434.00
2023-03-16T08:15:10.654Z,432.00
2023-03-16T08:16:11.003Z,434.00
2023-03-16T08:17:11.656Z,434.00
2023-03-16T08:18:11.678Z,436.00
2023-03-16T08:19:11.685Z,434.00
2023-03-16T08:20:11.681Z,434.00
2023-03-16T08:21:11.677Z,434.00
2023-03-16T08:22:11.694Z,434.00
2023-03-16T08:23:11.699Z,435.00
2023-03-16T08:24:10.715Z,435.00
2023-03-16T08:25:11.698Z,435.00
2023-03-16T08:26:10.699Z,435.00
2023-03-16T08:27:11.761Z,437.00
2023-03-16T08:28:11.723Z,433.00
2023-03-16T08:29:11.773Z,436.00
2023-03-16T08:30:10.695Z,435.00
2023-03-16T08:31:11.726Z,437.00
2023-03-16T08:32:11.697Z,436.00
2023-03-16T08:33:11.806Z,438.00
2023-03-16T08:34:11.718Z,437.00
2023-03-16T08:35:11.720Z,439.00
2023-03-16T08:36:11.725Z,439.00
2023-03-16T08:37:11.739Z,437.00
2023-03-16T08:38:11.719Z,441.00
2023-03-16T08:39:12.233Z,441.00
2023-03-16T08:40:11.728Z,442.00
2023-03-16T08:41:11.715Z,445.00
2023-03-16T08:42:11.727Z,445.00
2023-03-16T08:43:11.760Z,444.00
2023-03-16T08:44:11.729Z,444.00
2023-03-16T08:45:14.221Z,443.00
2023-03-16T08:46:11.759Z,440.00
2023-03-16T08:47:11.723Z,440.00
2023-03-16T08:48:12.029Z,438.00
2023-03-16T08:49:11.700Z,438.00
2023-03-16T08:50:11.706Z,439.00
2023-03-16T08:51:11.746Z,440.00
2023-03-16T08:52:11.676Z,441.00
2023-03-16T08:53:11.681Z,440.00
2023-03-16T08:54:10.670Z,439.00
2023-03-16T08:55:11.650Z,441.00
2023-03-16T08:56:11.666Z,438.00
2023-03-16T08:57:11.655Z,440.00
2023-03-16T08:58:11.639Z,441.00
2023-03-16T08:59:23.665Z,441.00
2023-03-16T09:00:11.629Z,441.00
2023-03-16T09:01:11.621Z,443.00
2023-03-16T09:02:11.720Z,443.00
2023-03-16T09:03:11.611Z,442.00
2023-03-16T09:04:11.686Z,441.00
2023-03-16T09:05:11.578Z,441.00
2023-03-16T09:06:11.572Z,443.00
2023-03-16T09:07:10.576Z,442.00
2023-03-16T09:08:11.583Z,442.00
2023-03-16T09:09:10.561Z,443.00
2023-03-16T09:10:11.553Z,443.00
2023-03-16T09:11:11.542Z,443.00
2023-03-16T09:12:11.537Z,444.00
2023-03-16T09:13:11.529Z,441.00
2023-03-16T09:14:11.520Z,440.00
2023-03-16T09:15:11.576Z,440.00
2023-03-16T09:16:11.570Z,441.00
2023-03-16T09:17:11.511Z,440.00
2023-03-16T09:18:11.507Z,438.00
2023-03-16T09:19:11.521Z,437.00
2023-03-16T09:20:22.797Z,436.00
2023-03-16T09:21:11.483Z,434.00
2023-03-16T09:22:10.460Z,434.00
2023-03-16T09:23:10.457Z,436.00
2023-03-16T09:24:11.459Z,432.00
2023-03-16T09:25:10.485Z,432.00
2023-03-16T09:26:11.458Z,432.00
2023-03-16T09:27:11.473Z,430.00
2023-03-16T09:28:10.448Z,433.00
2023-03-16T09:29:11.428Z,433.00
2023-03-16T09:30:11.411Z,433.00
2023-03-16T09:31:11.445Z,432.00
2023-03-16T09:32:11.399Z,433.00
2023-03-16T09:33:11.526Z,432.00
2023-03-16T09:34:11.377Z,433.00
2023-03-16T09:35:10.392Z,434.00
2023-03-16T09:36:10.428Z,433.00
2023-03-16T09:37:11.358Z,432.00
2023-03-16T09:38:10.374Z,433.00
2023-03-16T09:39:11.353Z,433.00
2023-03-16T09:40:12.103Z,431.00
2023-03-16T09:41:11.337Z,432.00
2023-03-16T09:42:11.332Z,433.00
2023-03-16T09:43:10.554Z,434.00
2023-03-16T09:44:11.341Z,435.00
2023-03-16T09:45:11.316Z,436.00
2023-03-16T09:46:11.360Z,432.00
2023-03-16T09:47:11.326Z,429.00
2023-03-16T09:48:11.301Z,428.00
2023-03-16T09:49:11.286Z,426.00
2023-03-16T09:50:11.328Z,427.00
2023-03-16T09:51:11.382Z,425.00
2023-03-16T09:52:11.257Z,426.00
2023-03-16T09:53:11.280Z,427.00
2023-03-16T09:54:11.245Z,429.00
2023-03-16T09:55:11.255Z,428.00
2023-03-16T09:56:11.249Z,426.00
2023-03-16T09:57:11.226Z,427.00
2023-03-16T09:58:11.234Z,428.00
2023-03-16T09:59:11.592Z,430.00
2023-03-16T10:00:11.211Z,431.00
2023-03-16T10:01:11.362Z,429.00
2023-03-16T10:02:11.199Z,429.00
2023-03-16T10:03:11.220Z,430.00
2023-03-16T10:04:11.273Z,430.00
2023-03-16T10:05:11.176Z,427.00
2023-03-16T10:06:10.176Z,427.00
2023-03-16T10:07:11.168Z,424.00
2023-03-16T10:08:10.161Z,423.00
2023-03-16T10:09:11.147Z,420.00
2023-03-16T10:10:10.162Z,418.00
2023-03-16T10:11:11.145Z,417.00
2023-03-16T10:12:11.198Z,420.00
2023-03-16T10:13:11.118Z,424.00
2023-03-16T10:14:11.119Z,427.00
2023-03-16T10:15:10.303Z,426.00
2023-03-16T10:16:11.206Z,423.00
2023-03-16T10:17:11.100Z,423.00
2023-03-16T10:18:13.319Z,426.00
2023-03-16T10:19:11.270Z,428.00
2023-03-16T10:20:11.088Z,433.00
2023-03-16T10:21:10.061Z,432.00
2023-03-16T10:22:11.080Z,433.00
2023-03-16T10:23:11.048Z,435.00
2023-03-16T10:24:11.110Z,437.00
2023-03-16T10:25:10.042Z,438.00
2023-03-16T10:26:10.041Z,438.00
2023-03-16T10:27:11.031Z,437.00
2023-03-16T10:28:11.022Z,436.00
2023-03-16T10:29:11.008Z,432.00
2023-03-16T10:30:11.014Z,431.00
2023-03-16T10:31:10.999Z,432.00
2023-03-16T10:32:10.994Z,430.00
2023-03-16T10:33:11.084Z,429.00
2023-03-16T10:34:10.976Z,426.00
2023-03-16T10:35:10.990Z,424.00
2023-03-16T10:36:10.014Z,423.00
2023-03-16T10:37:10.970Z,426.00
2023-03-16T10:38:09.956Z,427.00
2023-03-16T10:39:10.948Z,428.00
2023-03-16T10:40:10.942Z,427.00
2023-03-16T10:41:09.932Z,426.00
2023-03-16T10:42:10.959Z,426.00
2023-03-16T10:43:10.927Z,426.00
2023-03-16T10:44:10.937Z,426.00
2023-03-16T10:45:10.896Z,431.00
2023-03-16T10:46:12.540Z,433.00
2023-03-16T10:47:11.106Z,435.00
2023-03-16T10:48:10.898Z,435.00
2023-03-16T10:49:11.089Z,437.00
2023-03-16T10:50:10.867Z,437.00
2023-03-16T10:51:10.907Z,436.00
2023-03-16T10:52:10.858Z,436.00
2023-03-16T10:53:10.855Z,435.00
2023-03-16T10:54:10.986Z,433.00
2023-03-16T10:55:10.847Z,433.00
2023-03-16T10:56:09.845Z,435.00
2023-03-16T10:57:10.832Z,432.00
2023-03-16T10:58:10.814Z,433.00
2023-03-16T10:59:10.818Z,437.00
2023-03-16T11:00:10.806Z,440.00
2023-03-16T11:01:09.826Z,439.00
2023-03-16T11:02:10.800Z,437.00
2023-03-16T11:03:09.780Z,436.00
2023-03-16T11:04:10.816Z,433.00
2023-03-16T11:05:09.783Z,432.00
2023-03-16T11:06:10.770Z,433.00
2023-03-16T11:07:10.779Z,432.00
2023-03-16T11:08:10.769Z,432.00
2023-03-16T11:09:10.760Z,432.00
2023-03-16T11:10:10.740Z,431.00
2023-03-16T11:11:10.732Z,432.00
2023-03-16T11:12:09.740Z,432.00
2023-03-16T11:13:10.715Z,433.00
2023-03-16T11:14:10.743Z,435.00
2023-03-16T11:15:23.623Z,435.00
2023-03-16T11:16:10.693Z,434.00
2023-03-16T11:17:10.698Z,433.00
2023-03-16T11:18:10.701Z,433.00
2023-03-16T11:19:10.678Z,432.00
2023-03-16T11:20:10.676Z,432.00
2023-03-16T11:21:10.666Z,431.00
2023-03-16T11:22:10.651Z,429.00
2023-03-16T11:23:10.760Z,428.00
2023-03-16T11:24:10.643Z,426.00
2023-03-16T11:25:09.644Z,428.00
2023-03-16T11:26:10.630Z,429.00
2023-03-16T11:27:10.626Z,428.00
2023-03-16T11:28:10.628Z,431.00
2023-03-16T11:29:10.623Z,433.00
2023-03-16T11:30:09.608Z,432.00
2023-03-16T11:31:10.664Z,430.00
2023-03-16T11:32:10.588Z,431.00
2023-03-16T11:33:10.658Z,431.00
2023-03-16T11:34:10.602Z,434.00
2023-03-16T11:35:10.570Z,436.00
2023-03-16T11:36:10.607Z,436.00
2023-03-16T11:37:10.568Z,436.00
2023-03-16T11:38:10.562Z,434.00
2023-03-16T11:39:10.614Z,434.00
2023-03-16T11:40:09.539Z,435.00
2023-03-16T11:41:10.568Z,434.00
2023-03-16T11:42:09.566Z,433.00
2023-03-16T11:43:10.524Z,435.00
2023-03-16T11:44:10.600Z,434.00
2023-03-16T11:45:10.506Z,433.00
2023-03-16T11:46:09.549Z,435.00
2023-03-16T11:47:10.501Z,436.00
2023-03-16T11:48:10.476Z,435.00
2023-03-16T11:49:10.475Z,433.00
2023-03-16T11:50:10.470Z,433.00
2023-03-16T11:51:10.478Z,432.00
2023-03-16T11:52:10.456Z,432.00
2023-03-16T11:53:10.437Z,430.00
2023-03-16T11:54:10.437Z,427.00
2023-03-16T11:55:10.463Z,425.00
2023-03-16T11:56:09.440Z,425.00
2023-03-16T11:57:10.414Z,423.00
2023-03-16T11:58:09.398Z,424.00
2023-03-16T11:59:10.404Z,425.00
2023-03-16T12:00:09.392Z,425.00
2023-03-16T12:01:10.386Z,424.00
2023-03-16T12:02:10.450Z,423.00
2023-03-16T12:03:10.564Z,423.00
2023-03-16T12:04:10.504Z,424.00
2023-03-16T12:05:10.353Z,424.00
2023-03-16T12:06:22.145Z,422.00
2023-03-16T12:07:10.328Z,424.00
2023-03-16T12:08:10.328Z,423.00
2023-03-16T12:09:10.328Z,427.00
2023-03-16T12:10:10.324Z,426.00
2023-03-16T12:11:10.336Z,428.00
2023-03-16T12:12:10.314Z,428.00
2023-03-16T12:13:09.312Z,431.00
2023-03-16T12:14:10.303Z,431.00
2023-03-16T12:15:10.291Z,433.00
2023-03-16T12:16:10.304Z,434.00
2023-03-16T12:17:10.293Z,431.00
2023-03-16T12:18:10.276Z,431.00
2023-03-16T12:19:09.266Z,431.00
2023-03-16T12:20:10.247Z,434.00
2023-03-16T12:21:10.243Z,435.00
2023-03-16T12:22:10.239Z,433.00
2023-03-16T12:23:10.233Z,431.00
2023-03-16T12:24:10.229Z,428.00
2023-03-16T12:25:10.218Z,429.00
2023-03-16T12:26:10.208Z,426.00
2023-03-16T12:27:09.223Z,425.00
2023-03-16T12:28:10.194Z,423.00
2023-03-16T12:29:10.184Z,431.00
2023-03-16T12:30:10.188Z,432.00
2023-03-16T12:31:10.257Z,429.00
2023-03-16T12:32:10.177Z,429.00
2023-03-16T12:33:09.158Z,429.00
2023-03-16T12:34:10.166Z,428.00
2023-03-16T12:35:10.922Z,427.00
2023-03-16T12:36:10.321Z,428.00
2023-03-16T12:37:10.276Z,428.00
2023-03-16T12:38:10.293Z,427.00
2023-03-16T12:39:10.615Z,427.00
2023-03-16T12:40:09.419Z,426.00
2023-03-16T12:41:10.316Z,426.00
2023-03-16T12:42:10.309Z,424.00
2023-03-16T12:43:10.351Z,425.00
2023-03-16T12:44:10.665Z,424.00
2023-03-16T12:45:10.343Z,424.00
2023-03-16T12:46:09.434Z,424.00
2023-03-16T12:47:10.373Z,426.00
2023-03-16T12:48:10.370Z,427.00
2023-03-16T12:49:10.396Z,426.00
2023-03-16T12:50:10.395Z,426.00
2023-03-16T12:51:10.412Z,424.00
2023-03-16T12:52:11.446Z,426.00
2023-03-16T12:53:10.433Z,425.00
2023-03-16T12:54:09.450Z,424.00
2023-03-16T12:55:10.463Z,425.00
2023-03-16T12:56:10.482Z,427.00
2023-03-16T12:57:10.482Z,428.00
2023-03-16T12:58:09.492Z,429.00
2023-03-16T12:59:10.531Z,427.00
2023-03-16T13:00:10.510Z,428.00
2023-03-16T13:01:10.586Z,429.00
2023-03-16T13:02:09.534Z,429.00
2023-03-16T13:03:10.562Z,430.00
2023-03-16T13:04:10.680Z,429.00
2023-03-16T13:05:10.584Z,428.00
2023-03-16T13:06:10.585Z,430.00
2023-03-16T13:07:10.597Z,430.00
2023-03-16T13:08:09.608Z,431.00
2023-03-16T13:09:10.636Z,430.00
2023-03-16T13:10:10.658Z,432.00
2023-03-16T13:11:09.678Z,433.00
2023-03-16T13:12:10.687Z,432.00
2023-03-16T13:13:10.714Z,430.00
2023-03-16T13:14:10.721Z,431.00
2023-03-16T13:15:09.764Z,431.00
2023-03-16T13:16:10.775Z,427.00
2023-03-16T13:17:10.782Z,426.00
2023-03-16T13:18:10.748Z,427.00
2023-03-16T13:19:10.766Z,428.00
2023-03-16T13:20:13.729Z,428.00
2023-03-16T13:21:10.787Z,426.00
2023-03-16T13:22:10.759Z,425.00
2023-03-16T13:23:10.753Z,426.00
2023-03-16T13:24:10.756Z,427.00
2023-03-16T13:25:10.773Z,431.00
2023-03-16T13:26:10.763Z,434.00
2023-03-16T13:27:10.742Z,439.00
2023-03-16T13:28:10.727Z,444.00
2023-03-16T13:29:10.710Z,449.00
2023-03-16T13:30:10.750Z,452.00
2023-03-16T13:31:10.728Z,458.00
2023-03-16T13:32:10.705Z,464.00
2023-03-16T13:33:09.682Z,418.00
2023-03-16T13:34:11.141Z,461.00
2023-03-16T13:35:10.666Z,458.00
2023-03-16T13:36:10.751Z,457.00
2023-03-16T13:37:10.642Z,457.00
2023-03-16T13:38:10.651Z,457.00
2023-03-16T13:39:10.648Z,455.00
2023-03-16T13:40:10.685Z,454.00
2023-03-16T13:41:10.629Z,455.00
2023-03-16T13:42:10.620Z,453.00
2023-03-16T13:43:09.613Z,456.00
2023-03-16T13:44:10.603Z,454.00
2023-03-16T13:45:10.600Z,454.00
2023-03-16T13:46:10.700Z,456.00
2023-03-16T13:47:10.618Z,458.00
2023-03-16T13:48:10.580Z,459.00
2023-03-16T13:49:09.570Z,462.00
2023-03-16T13:50:10.658Z,466.00
2023-03-16T13:51:10.566Z,469.00
2023-03-16T13:52:10.558Z,472.00
2023-03-16T13:53:10.567Z,477.00
2023-03-16T13:54:10.600Z,478.00
2023-03-16T13:55:10.766Z,482.00
2023-03-16T13:56:10.691Z,484.00
2023-03-16T13:57:10.735Z,487.00
2023-03-16T13:58:10.778Z,487.00
2023-03-16T13:59:10.839Z,488.00
2023-03-16T14:00:11.004Z,492.00
2023-03-16T14:01:10.958Z,493.00
2023-03-16T14:02:10.987Z,492.00
2023-03-16T14:03:11.000Z,495.00
2023-03-16T14:04:11.033Z,497.00
2023-03-16T14:05:11.062Z,501.00
2023-03-16T14:06:11.108Z,503.00
2023-03-16T14:07:11.159Z,506.00
2023-03-16T14:08:10.174Z,509.00
2023-03-16T14:09:11.243Z,513.00
2023-03-16T14:10:11.248Z,519.00
2023-03-16T14:11:11.284Z,526.00
2023-03-16T14:12:11.345Z,530.00
2023-03-16T14:13:10.380Z,531.00
2023-03-16T14:14:11.424Z,530.00
2023-03-16T14:15:11.424Z,536.00
2023-03-16T14:16:11.592Z,543.00
2023-03-16T14:17:11.482Z,543.00
2023-03-16T14:18:11.554Z,546.00
2023-03-16T14:19:11.591Z,548.00
2023-03-16T14:20:11.574Z,549.00
2023-03-16T14:21:11.579Z,554.00
2023-03-16T14:22:11.614Z,558.00
2023-03-16T14:23:11.729Z,562.00
2023-03-16T14:24:11.680Z,565.00
2023-03-16T14:25:11.674Z,569.00
2023-03-16T14:26:11.874Z,572.00
2023-03-16T14:27:10.750Z,587.00
2023-03-16T14:28:10.787Z,581.00
2023-03-16T14:29:11.851Z,607.00
2023-03-16T14:30:11.848Z,584.00
2023-03-16T14:31:12.000Z,580.00
2023-03-16T14:32:11.940Z,577.00
2023-03-16T14:33:12.011Z,580.00
2023-03-16T14:34:12.061Z,581.00
2023-03-16T14:35:12.103Z,583.00
2023-03-16T14:36:12.138Z,588.00
2023-03-16T14:37:12.231Z,602.00
2023-03-16T14:38:12.203Z,610.00
2023-03-16T14:39:11.237Z,609.00
2023-03-16T14:40:12.308Z,610.00
2023-03-16T14:41:12.478Z,616.00
2023-03-16T14:42:12.337Z,624.00
2023-03-16T14:43:11.357Z,633.00
2023-03-16T14:44:12.383Z,632.00
2023-03-16T14:45:12.496Z,635.00
2023-03-16T14:46:12.663Z,639.00
2023-03-16T14:47:11.720Z,643.00
2023-03-16T14:48:11.677Z,647.00
2023-03-16T14:49:12.623Z,648.00
2023-03-16T14:50:12.662Z,650.00
2023-03-16T14:51:12.626Z,654.00
2023-03-16T14:52:12.692Z,656.00
2023-03-16T14:53:12.680Z,660.00
2023-03-16T14:54:12.705Z,669.00
2023-03-16T14:55:12.758Z,672.00
2023-03-16T14:56:12.885Z,674.00
2023-03-16T14:57:12.778Z,678.00
2023-03-16T14:58:11.849Z,680.00
2023-03-16T14:59:12.862Z,685.00
2023-03-16T15:00:12.894Z,689.00
2023-03-16T15:01:12.988Z,689.00
2023-03-16T15:02:12.989Z,694.00
2023-03-16T15:03:12.051Z,699.00
2023-03-16T15:04:13.049Z,699.00
2023-03-16T15:05:13.190Z,704.00
2023-03-16T15:06:13.145Z,708.00
2023-03-16T15:07:13.340Z,708.00
2023-03-16T15:08:13.268Z,708.00
2023-03-16T15:09:13.339Z,709.00
2023-03-16T15:10:13.400Z,708.00
2023-03-16T15:11:13.451Z,709.00
2023-03-16T15:12:13.489Z,712.00
2023-03-16T15:13:13.543Z,715.00
2023-03-16T15:14:13.606Z,718.00
2023-03-16T15:15:13.670Z,723.00
2023-03-16T15:16:12.714Z,723.00
2023-03-16T15:17:13.636Z,729.00
2023-03-16T15:18:12.637Z,804.00
2023-03-16T15:19:12.670Z,746.00
2023-03-16T15:20:12.688Z,758.00
2023-03-16T15:21:13.671Z,757.00
2023-03-16T15:22:13.704Z,752.00
2023-03-16T15:23:12.759Z,761.00
2023-03-16T15:24:13.765Z,764.00
2023-03-16T15:25:13.792Z,767.00
2023-03-16T15:26:13.814Z,765.00
2023-03-16T15:27:13.836Z,764.00
2023-03-16T15:28:13.856Z,764.00
2023-03-16T15:29:13.855Z,763.00
2023-03-16T15:30:13.860Z,762.00
2023-03-16T15:31:13.904Z,763.00
2023-03-16T15:32:13.875Z,764.00
2023-03-16T15:33:13.884Z,763.00
2023-03-16T15:34:13.916Z,766.00
2023-03-16T15:35:12.875Z,767.00
2023-03-16T15:36:13.860Z,765.00
2023-03-16T15:37:13.861Z,762.00
2023-03-16T15:38:13.877Z,763.00
2023-03-16T15:39:13.929Z,760.00
2023-03-16T15:40:13.930Z,757.00
2023-03-16T15:41:13.930Z,757.00
2023-03-16T15:42:12.918Z,757.00
2023-03-16T15:43:13.923Z,755.00
2023-03-16T15:44:13.996Z,754.00
2023-03-16T15:45:13.906Z,754.00
2023-03-16T15:46:13.998Z,755.00
2023-03-16T15:47:13.902Z,755.00
2023-03-16T15:48:13.923Z,754.00
2023-03-16T15:49:13.927Z,754.00
2023-03-16T15:50:13.917Z,752.00
2023-03-16T15:51:13.897Z,751.00
2023-03-16T15:52:13.912Z,751.00
2023-03-16T15:53:29.259Z,752.00
2023-03-16T15:54:13.988Z,751.00
2023-03-16T15:55:12.922Z,752.00
2023-03-16T15:56:13.883Z,751.00
2023-03-16T15:57:13.889Z,751.00
2023-03-16T15:58:13.874Z,747.00
2023-03-16T15:59:13.859Z,745.00
2023-03-16T16:00:13.858Z,745.00
2023-03-16T16:01:13.932Z,742.00
2023-03-16T16:02:12.835Z,742.00
2023-03-16T16:03:13.847Z,743.00
2023-03-16T16:04:13.999Z,743.00
2023-03-16T16:05:12.825Z,742.00
2023-03-16T16:06:12.823Z,742.00
2023-03-16T16:07:12.805Z,739.00
2023-03-16T16:08:13.804Z,737.00
2023-03-16T16:09:13.795Z,738.00
2023-03-16T16:10:13.807Z,739.00
2023-03-16T16:11:13.814Z,742.00
2023-03-16T16:12:13.800Z,743.00
2023-03-16T16:13:13.775Z,745.00
2023-03-16T16:14:13.778Z,747.00
2023-03-16T16:15:13.763Z,746.00
2023-03-16T16:16:13.842Z,746.00
2023-03-16T16:17:13.770Z,746.00
2023-03-16T16:18:21.487Z,745.00
2023-03-16T16:19:13.726Z,743.00
2023-03-16T16:20:13.717Z,743.00
2023-03-16T16:21:13.746Z,741.00
2023-03-16T16:22:12.799Z,743.00
2023-03-16T16:23:13.687Z,743.00
2023-03-16T16:24:54.425Z,750.00
2023-03-16T16:25:55.379Z,749.00
2023-03-16T16:26:56.015Z,752.00
2023-03-16T16:27:54.369Z,756.00
2023-03-16T16:28:55.361Z,757.00
2023-03-16T16:29:55.368Z,755.00
